createdAt,value
2019-02-26T00:03:46.623Z,2.93
2019-02-26T00:06:28.340Z,3.17
2019-02-26T00:09:10.700Z,3.15
2019-02-26T00:11:51.552Z,2.42
2019-02-26T00:14:32.438Z,2.83
2019-02-26T00:17:15.123Z,3.08
2019-02-26T00:19:56.590Z,2.90
2019-02-26T00:22:38.973Z,3.45
2019-02-26T00:25:20.637Z,2.83
2019-02-26T00:28:01.868Z,2.33
2019-02-26T00:30:42.579Z,3.98
2019-02-26T00:33:25.202Z,3.45
2019-02-26T00:36:07.158Z,2.65
2019-02-26T00:38:48.911Z,3.27
2019-02-26T00:41:31.868Z,3.10
2019-02-26T00:44:12.575Z,3.00
2019-02-26T00:46:55.710Z,2.92
2019-02-26T00:49:36.571Z,2.75
2019-02-26T00:52:17.137Z,2.67
2019-02-26T00:55:00.010Z,2.08
2019-02-26T00:57:42.990Z,2.20
2019-02-26T01:00:26.327Z,2.55
2019-02-26T01:03:09.142Z,2.12
2019-02-26T01:05:49.823Z,2.12
2019-02-26T01:08:31.119Z,3.27
2019-02-26T01:11:12.523Z,2.60
2019-02-26T01:13:55.055Z,2.70
2019-02-26T01:16:37.063Z,2.65
2019-02-26T01:19:19.912Z,3.05
2019-02-26T01:22:00.593Z,2.25
2019-02-26T01:24:41.440Z,2.47
2019-02-26T01:27:22.335Z,2.60
2019-02-26T01:30:03.435Z,2.62
2019-02-26T01:32:44.808Z,2.83
2019-02-26T01:35:28.225Z,2.35
2019-02-26T01:38:09.288Z,2.37
2019-02-26T01:40:51.884Z,2.33
2019-02-26T01:43:32.710Z,3.05
2019-02-26T01:46:14.497Z,2.58
2019-02-26T01:48:57.567Z,2.70
2019-02-26T01:51:38.815Z,2.50
2019-02-26T01:54:19.515Z,2.20
2019-02-26T01:57:00.216Z,3.02
2019-02-26T01:59:40.822Z,2.00
2019-02-26T02:02:23.260Z,2.70
2019-02-26T02:05:05.373Z,2.58
2019-02-26T02:07:48.994Z,2.40
2019-02-26T02:10:29.070Z,2.35
2019-02-26T02:13:11.480Z,2.85
2019-02-26T02:15:52.836Z,2.15
2019-02-26T02:18:33.622Z,2.17
2019-02-26T02:21:14.241Z,2.50
2019-02-26T02:23:54.880Z,2.40
2019-02-26T02:26:36.355Z,2.70
2019-02-26T02:29:19.186Z,2.40
2019-02-26T02:32:02.821Z,2.62
2019-02-26T02:34:43.062Z,3.05
2019-02-26T02:37:26.776Z,2.67
2019-02-26T02:40:06.551Z,2.08
2019-02-26T02:42:49.102Z,3.30
2019-02-26T02:45:29.607Z,2.33
2019-02-26T02:48:11.692Z,2.60
2019-02-26T02:50:53.783Z,2.33
2019-02-26T02:53:34.462Z,2.60
2019-02-26T02:56:17.411Z,2.47
2019-02-26T02:58:59.569Z,2.20
2019-02-26T03:01:40.119Z,1.85
2019-02-26T03:04:22.355Z,2.15
2019-02-26T03:07:03.518Z,1.70
2019-02-26T03:09:45.758Z,1.90
2019-02-26T03:12:26.852Z,2.02
2019-02-26T03:15:09.890Z,1.82
2019-02-26T03:17:50.008Z,1.87
2019-02-26T03:20:35.622Z,1.70
2019-02-26T03:23:18.969Z,1.92
2019-02-26T03:25:56.835Z,2.00
2019-02-26T03:28:39.495Z,1.82
2019-02-26T03:31:19.800Z,2.00
2019-02-26T03:34:08.821Z,2.25
2019-02-26T03:36:45.781Z,2.10
2019-02-26T03:39:26.372Z,1.80
2019-02-26T03:42:08.221Z,1.80
2019-02-26T03:44:50.468Z,2.33
2019-02-26T03:47:31.937Z,1.92
2019-02-26T03:50:12.687Z,2.08
2019-02-26T03:52:54.010Z,1.70
2019-02-26T03:55:36.188Z,1.30
2019-02-26T03:58:17.170Z,1.47
2019-02-26T04:01:01.754Z,1.70
2019-02-26T04:03:42.393Z,1.80
2019-02-26T04:06:23.041Z,2.40
2019-02-26T04:09:04.588Z,1.85
2019-02-26T04:11:48.240Z,2.60
2019-02-26T04:14:30.523Z,1.75
2019-02-26T04:17:11.164Z,1.80
2019-02-26T04:19:51.872Z,1.32
2019-02-26T04:22:32.585Z,1.65
2019-02-26T04:25:13.871Z,2.10
2019-02-26T04:27:57.034Z,2.35
2019-02-26T04:30:39.338Z,1.70
2019-02-26T04:33:20.619Z,1.45
2019-02-26T04:36:01.292Z,1.20
2019-02-26T04:38:43.315Z,1.67
2019-02-26T04:41:25.284Z,1.80
2019-02-26T04:44:06.757Z,1.70
2019-02-26T04:46:47.427Z,1.20
2019-02-26T04:49:30.882Z,1.55
2019-02-26T04:52:14.379Z,1.60
2019-02-26T04:54:54.128Z,1.70
2019-02-26T04:57:34.957Z,1.95
2019-02-26T05:00:16.505Z,1.70
2019-02-26T05:02:57.974Z,1.82
2019-02-26T05:05:38.577Z,1.80
2019-02-26T05:08:19.210Z,2.10
2019-02-26T05:11:00.531Z,2.17
2019-02-26T05:13:41.913Z,2.50
2019-02-26T05:16:26.055Z,2.20
2019-02-26T05:19:05.061Z,2.20
2019-02-26T05:21:45.743Z,1.92
2019-02-26T05:24:27.233Z,1.50
2019-02-26T05:27:10.169Z,1.52
2019-02-26T05:32:51.953Z,1.70
2019-02-26T05:35:32.224Z,1.85
2019-02-26T05:38:13.605Z,1.70
2019-02-26T05:40:55.867Z,1.30
2019-02-26T05:43:37.374Z,1.98
2019-02-26T05:46:19.501Z,2.20
2019-02-26T05:49:00.632Z,1.62
2019-02-26T05:51:41.934Z,1.80
2019-02-26T05:54:24.474Z,1.50
2019-02-26T05:57:06.736Z,2.00
2019-02-26T05:59:48.246Z,1.65
2019-02-26T06:02:29.579Z,2.45
2019-02-26T06:05:11.831Z,3.47
2019-02-26T06:07:52.784Z,1.72
2019-02-26T06:10:33.389Z,1.55
2019-02-26T06:13:15.705Z,1.52
2019-02-26T06:15:58.718Z,2.15
2019-02-26T06:18:41.957Z,1.40
2019-02-26T06:21:23.591Z,1.85
2019-02-26T06:24:05.490Z,1.72
2019-02-26T06:26:46.976Z,1.30
2019-02-26T06:29:29.829Z,1.50
2019-02-26T06:32:12.036Z,1.90
2019-02-26T06:34:52.751Z,1.25
2019-02-26T06:37:35.429Z,1.67
2019-02-26T06:40:15.819Z,1.42
2019-02-26T06:42:56.528Z,1.32
2019-02-26T06:45:37.949Z,1.17
2019-02-26T06:48:24.184Z,1.40
2019-02-26T06:51:04.658Z,1.70
2019-02-26T06:53:49.256Z,1.70
2019-02-26T06:56:30.200Z,1.77
2019-02-26T06:59:12.257Z,1.22
2019-02-26T07:01:55.600Z,1.32
2019-02-26T07:04:35.804Z,1.30
2019-02-26T07:07:16.557Z,1.57
2019-02-26T07:09:58.128Z,1.45
2019-02-26T07:12:41.195Z,1.40
2019-02-26T07:15:21.447Z,1.70
2019-02-26T07:18:06.696Z,1.83
2019-02-26T07:20:47.476Z,2.00
2019-02-26T07:23:29.780Z,1.77
2019-02-26T07:26:11.714Z,2.23
2019-02-26T07:28:53.364Z,1.30
2019-02-26T07:31:35.539Z,1.63
2019-02-26T07:34:18.263Z,1.70
2019-02-26T07:36:59.502Z,2.00
2019-02-26T07:39:41.956Z,2.40
2019-02-26T07:42:23.487Z,1.67
2019-02-26T07:45:14.366Z,1.70
2019-02-26T07:47:49.113Z,3.90
2019-02-26T07:50:34.162Z,4.20
2019-02-26T07:53:14.363Z,7.57
2019-02-26T07:55:56.343Z,9.43
2019-02-26T07:58:38.965Z,5.30
2019-02-26T08:01:20.391Z,4.07
2019-02-26T08:04:01.136Z,2.20
2019-02-26T08:06:42.699Z,2.20
2019-02-26T08:09:23.723Z,2.23
2019-02-26T08:12:06.661Z,2.40
2019-02-26T08:14:47.761Z,3.20
2019-02-26T08:17:29.996Z,3.60
2019-02-26T08:20:12.856Z,2.93
2019-02-26T08:22:54.249Z,2.93
2019-02-26T08:25:35.774Z,5.00
2019-02-26T08:28:18.558Z,6.73
2019-02-26T08:30:59.493Z,5.70
2019-02-26T08:33:41.000Z,5.80
2019-02-26T08:36:22.336Z,5.27
2019-02-26T08:39:04.092Z,4.23
2019-02-26T08:41:45.492Z,4.43
2019-02-26T08:44:28.094Z,4.60
2019-02-26T08:47:11.098Z,4.33
2019-02-26T08:49:51.031Z,4.47
2019-02-26T08:52:32.553Z,5.60
2019-02-26T08:55:15.557Z,4.90
2019-02-26T08:57:56.549Z,4.60
2019-02-26T09:00:37.200Z,4.67
2019-02-26T09:03:17.981Z,4.20
2019-02-26T09:06:12.728Z,4.00
2019-02-26T09:08:57.987Z,3.80
2019-02-26T09:11:46.977Z,4.67
2019-02-26T09:14:37.553Z,6.40
2019-02-26T09:17:26.906Z,6.93
2019-02-26T09:20:15.865Z,5.33
2019-02-26T09:23:04.324Z,4.93
2019-02-26T09:25:56.620Z,7.97
2019-02-26T09:28:44.595Z,6.83
2019-02-26T09:31:32.953Z,5.80
2019-02-26T09:34:21.424Z,5.47
2019-02-26T09:37:09.864Z,5.93
2019-02-26T09:39:59.239Z,5.60
2019-02-26T09:42:51.733Z,5.20
2019-02-26T09:45:30.705Z,5.00
2019-02-26T09:48:12.344Z,4.63
2019-02-26T09:50:54.379Z,4.50
2019-02-26T09:53:35.075Z,4.87
2019-02-26T09:56:16.448Z,5.10
2019-02-26T09:58:57.116Z,5.30
2019-02-26T10:01:39.788Z,5.43
2019-02-26T10:04:22.089Z,4.47
2019-02-26T10:07:04.283Z,3.80
2019-02-26T10:09:48.340Z,5.00
2019-02-26T10:12:29.891Z,4.70
2019-02-26T10:15:10.755Z,4.63
2019-02-26T10:17:52.123Z,3.80
2019-02-26T10:20:33.615Z,4.00
2019-02-26T10:23:15.039Z,3.80
2019-02-26T10:25:57.925Z,5.17
2019-02-26T10:28:42.083Z,4.20
2019-02-26T10:31:25.071Z,4.40
2019-02-26T10:34:07.871Z,4.10
2019-02-26T10:36:49.298Z,4.87
2019-02-26T10:39:29.400Z,3.70
2019-02-26T10:42:10.284Z,3.90
2019-02-26T10:44:51.708Z,4.33
2019-02-26T10:47:34.519Z,3.77
2019-02-26T10:50:18.476Z,4.20
2019-02-26T10:53:06.874Z,3.70
2019-02-26T10:55:41.798Z,5.10
2019-02-26T10:58:23.168Z,4.83
2019-02-26T11:01:05.263Z,3.80
2019-02-26T11:03:49.149Z,4.57
2019-02-26T11:06:30.557Z,5.60
2019-02-26T11:09:14.399Z,5.23
2019-02-26T11:11:54.881Z,4.10
2019-02-26T11:14:39.072Z,4.30
2019-02-26T11:17:20.871Z,4.10
2019-02-26T11:20:04.601Z,4.10
2019-02-26T11:22:47.110Z,4.10
2019-02-26T11:25:27.855Z,4.80
2019-02-26T11:28:10.509Z,3.43
2019-02-26T11:30:52.131Z,3.73
2019-02-26T11:33:33.621Z,3.97
2019-02-26T11:36:15.728Z,3.53
2019-02-26T11:38:56.553Z,3.70
2019-02-26T11:41:38.008Z,4.10
2019-02-26T11:44:20.646Z,4.00
2019-02-26T11:47:08.642Z,3.90
2019-02-26T11:49:59.526Z,3.40
2019-02-26T11:52:51.903Z,3.53
2019-02-26T11:55:37.956Z,3.80
2019-02-26T11:58:27.049Z,3.30
2019-02-26T12:01:17.317Z,2.87
2019-02-26T12:04:07.919Z,2.30
2019-02-26T12:06:58.373Z,2.43
2019-02-26T12:09:45.999Z,1.67
2019-02-26T12:12:36.827Z,1.60
2019-02-26T12:15:24.545Z,1.30
2019-02-26T12:18:14.946Z,1.70
2019-02-26T12:21:05.397Z,1.90
2019-02-26T12:23:53.152Z,2.17
2019-02-26T12:26:42.775Z,2.10
2019-02-26T12:29:31.678Z,3.67
2019-02-26T12:32:22.346Z,3.80
2019-02-26T12:35:12.057Z,4.63
2019-02-26T12:38:16.751Z,5.53
2019-02-26T12:40:53.390Z,5.17
2019-02-26T12:43:43.367Z,5.63
2019-02-26T12:46:25.061Z,4.80
2019-02-26T12:49:08.515Z,4.53
2019-02-26T12:51:50.466Z,4.00
2019-02-26T12:54:33.656Z,3.53
2019-02-26T12:57:15.798Z,2.20
2019-02-26T12:59:56.235Z,2.60
2019-02-26T13:02:39.764Z,2.67
2019-02-26T13:05:22.989Z,2.33
2019-02-26T13:08:03.276Z,3.00
2019-02-26T13:10:49.570Z,3.17
2019-02-26T13:13:27.003Z,3.17
2019-02-26T13:16:08.335Z,3.30
2019-02-26T13:18:51.657Z,2.80
2019-02-26T13:21:31.832Z,3.47
2019-02-26T13:24:17.508Z,3.73
2019-02-26T13:26:59.516Z,3.23
2019-02-26T13:29:42.585Z,3.47
2019-02-26T13:32:25.914Z,3.57
2019-02-26T13:35:07.461Z,3.20
2019-02-26T13:37:46.455Z,3.87
2019-02-26T13:40:27.160Z,5.20
2019-02-26T13:43:07.837Z,3.70
2019-02-26T13:45:48.591Z,4.40
2019-02-26T13:48:29.192Z,4.63
2019-02-26T13:51:10.661Z,4.27
2019-02-26T13:53:52.053Z,4.30
2019-02-26T13:56:32.816Z,4.27
2019-02-26T13:59:14.097Z,4.77
2019-02-26T14:01:55.448Z,6.03
2019-02-26T14:04:36.738Z,4.70
2019-02-26T14:07:18.185Z,4.23
2019-02-26T14:09:59.051Z,3.80
2019-02-26T14:12:40.633Z,4.97
2019-02-26T14:15:21.499Z,4.30
2019-02-26T14:18:02.960Z,3.33
2019-02-26T14:20:45.579Z,5.30
2019-02-26T14:23:26.724Z,4.50
2019-02-26T14:26:07.343Z,3.97
2019-02-26T14:28:48.669Z,4.23
2019-02-26T14:31:29.656Z,3.77
2019-02-26T14:34:10.312Z,4.43
2019-02-26T14:36:50.907Z,3.67
2019-02-26T14:39:32.280Z,6.60
2019-02-26T14:42:13.123Z,5.53
2019-02-26T14:44:54.504Z,6.20
2019-02-26T14:47:36.051Z,5.27
2019-02-26T14:50:16.725Z,5.20
2019-02-26T14:52:58.131Z,4.10
2019-02-26T14:55:38.888Z,4.30
2019-02-26T14:58:20.532Z,5.87
2019-02-26T15:01:01.186Z,4.20
2019-02-26T15:03:41.885Z,2.73
2019-02-26T15:06:23.573Z,2.43
2019-02-26T15:09:05.012Z,3.80
2019-02-26T15:11:46.699Z,4.10
2019-02-26T15:14:28.151Z,4.10
2019-02-26T15:17:09.210Z,3.20
2019-02-26T15:19:53.217Z,3.87
2019-02-26T15:22:33.577Z,2.90
2019-02-26T15:25:14.871Z,3.70
2019-02-26T15:28:04.518Z,2.70
2019-02-26T15:30:38.783Z,2.70
2019-02-26T15:33:20.219Z,4.03
2019-02-26T15:36:01.631Z,4.03
2019-02-26T15:38:42.360Z,2.97
2019-02-26T15:41:22.954Z,3.67
2019-02-26T15:44:03.887Z,2.53
2019-02-26T15:46:44.628Z,1.93
2019-02-26T15:49:25.655Z,2.07
2019-02-26T15:52:06.859Z,1.93
2019-02-26T15:54:47.908Z,2.03
2019-02-26T15:57:31.101Z,2.90
2019-02-26T16:00:14.007Z,2.20
2019-02-26T16:02:58.964Z,2.50
2019-02-26T16:05:37.877Z,2.17
2019-02-26T16:08:19.341Z,2.00
2019-02-26T16:11:00.689Z,2.20
2019-02-26T16:13:42.020Z,2.30
2019-02-26T16:16:22.735Z,2.13
2019-02-26T16:19:04.236Z,1.90
2019-02-26T16:21:44.925Z,1.80
2019-02-26T16:24:26.313Z,2.40
2019-02-26T16:27:07.175Z,2.50
2019-02-26T16:29:48.535Z,2.77
2019-02-26T16:32:29.137Z,1.63
2019-02-26T16:35:10.029Z,2.27
2019-02-26T16:37:50.633Z,2.30
2019-02-26T16:40:32.247Z,2.70
2019-02-26T16:43:14.737Z,2.63
2019-02-26T16:45:55.847Z,2.37
2019-02-26T16:48:37.472Z,2.47
2019-02-26T16:51:20.895Z,2.60
2019-02-26T16:54:01.045Z,2.57
2019-02-26T16:56:41.720Z,1.97
2019-02-26T16:59:22.468Z,1.73
2019-02-26T17:02:03.371Z,1.97
2019-02-26T17:04:44.732Z,2.37
2019-02-26T17:07:25.495Z,2.10
2019-02-26T17:10:06.851Z,2.03
2019-02-26T17:12:53.005Z,2.07
2019-02-26T17:15:33.664Z,2.20
2019-02-26T17:18:16.151Z,2.00
2019-02-26T17:20:57.616Z,2.00
2019-02-26T17:23:39.077Z,2.10
2019-02-26T17:26:20.628Z,2.00
2019-02-26T17:29:02.053Z,2.00
2019-02-26T17:31:42.953Z,2.10
2019-02-26T17:34:24.317Z,1.70
2019-02-26T17:37:06.546Z,1.00
2019-02-26T17:39:47.793Z,1.50
2019-02-26T17:42:28.615Z,1.40
2019-02-26T17:45:09.789Z,1.43
2019-02-26T17:47:51.204Z,1.47
2019-02-26T17:50:32.639Z,1.87
2019-02-26T17:53:14.135Z,1.07
2019-02-26T17:55:55.487Z,1.10
2019-02-26T17:58:36.868Z,1.23
2019-02-26T18:01:17.528Z,1.00
2019-02-26T18:03:58.461Z,0.83
2019-02-26T18:06:39.176Z,1.40
2019-02-26T18:09:20.216Z,1.53
2019-02-26T18:12:02.285Z,1.00
2019-02-26T18:14:44.287Z,1.37
2019-02-26T18:17:25.621Z,1.30
2019-02-26T18:20:06.932Z,1.40
2019-02-26T18:22:48.432Z,0.97
2019-02-26T18:25:29.808Z,1.10
2019-02-26T18:28:10.833Z,1.17
2019-02-26T18:30:52.331Z,0.97
2019-02-26T18:33:36.163Z,1.00
2019-02-26T18:36:16.504Z,0.87
2019-02-26T18:38:57.983Z,1.03
2019-02-26T18:41:39.298Z,1.13
2019-02-26T18:44:21.257Z,1.53
2019-02-26T18:47:02.158Z,1.20
2019-02-26T18:49:42.755Z,1.50
2019-02-26T18:52:24.072Z,1.80
2019-02-26T18:55:05.271Z,1.80
2019-02-26T18:57:46.721Z,1.23
2019-02-26T19:00:27.755Z,1.00
2019-02-26T19:03:09.509Z,1.43
2019-02-26T19:05:53.971Z,1.13
2019-02-26T19:08:34.650Z,1.43
2019-02-26T19:11:16.794Z,1.40
2019-02-26T19:13:57.771Z,1.50
2019-02-26T19:16:39.115Z,1.60
2019-02-26T19:19:20.467Z,1.40
2019-02-26T19:22:01.124Z,1.83
2019-02-26T19:24:42.678Z,2.00
2019-02-26T19:27:23.888Z,1.40
2019-02-26T19:30:05.231Z,1.80
2019-02-26T19:32:47.747Z,2.17
2019-02-26T19:35:28.756Z,2.20
2019-02-26T19:38:10.251Z,2.03
2019-02-26T19:40:50.943Z,1.87
2019-02-26T19:43:31.730Z,2.30
2019-02-26T19:46:16.837Z,2.33
2019-02-26T19:48:54.900Z,2.13
2019-02-26T19:51:36.248Z,2.00
2019-02-26T19:54:17.554Z,1.93
2019-02-26T19:56:58.256Z,1.70
2019-02-26T19:59:39.587Z,1.33
2019-02-26T20:02:20.915Z,1.80
2019-02-26T20:05:01.586Z,1.60
2019-02-26T20:07:42.276Z,2.00
2019-02-26T20:10:23.481Z,1.53
2019-02-26T20:13:04.924Z,2.10
2019-02-26T20:15:46.204Z,1.60
2019-02-26T20:18:27.114Z,1.50
2019-02-26T20:21:08.538Z,1.80
2019-02-26T20:23:49.263Z,2.00
2019-02-26T20:26:30.617Z,1.80
2019-02-26T20:29:12.145Z,1.63
2019-02-26T20:35:05.360Z,1.30
2019-02-26T20:37:46.225Z,2.03
2019-02-26T20:40:27.572Z,1.83
2019-02-26T20:43:08.223Z,2.10
2019-02-26T20:45:51.097Z,1.73
2019-02-26T20:48:32.196Z,2.27
2019-02-26T20:51:13.243Z,2.23
2019-02-26T20:53:53.900Z,1.90
2019-02-26T20:56:36.182Z,1.60
2019-02-26T20:59:17.980Z,1.70
2019-02-26T21:01:59.580Z,1.83
2019-02-26T21:04:40.153Z,1.80
2019-02-26T21:07:21.824Z,2.20
2019-02-26T21:10:04.275Z,1.97
2019-02-26T21:12:45.319Z,1.70
2019-02-26T21:15:26.483Z,2.07
2019-02-26T21:18:07.846Z,2.40
2019-02-26T21:20:49.422Z,1.87
2019-02-26T21:23:32.475Z,1.60
2019-02-26T21:26:13.132Z,1.80
2019-02-26T21:28:54.121Z,1.90
2019-02-26T21:31:35.473Z,1.90
2019-02-26T21:34:16.944Z,1.70
2019-02-26T21:36:57.850Z,1.63
2019-02-26T21:39:43.579Z,1.77
2019-02-26T21:42:23.061Z,1.83
2019-02-26T21:45:03.670Z,1.50
2019-02-26T21:47:44.325Z,1.70
2019-02-26T21:50:25.852Z,1.40
2019-02-26T21:53:07.231Z,1.47
2019-02-26T21:55:48.720Z,2.53
2019-02-26T21:58:29.457Z,1.40
2019-02-26T22:01:11.744Z,1.60
2019-02-26T22:03:52.772Z,1.30
2019-02-26T22:06:33.980Z,1.57
2019-02-26T22:09:14.711Z,1.83
2019-02-26T22:11:56.079Z,1.93
2019-02-26T22:14:37.411Z,2.30
2019-02-26T22:17:18.267Z,2.33
2019-02-26T22:19:59.059Z,2.10
2019-02-26T22:22:39.888Z,1.87
2019-02-26T22:25:21.420Z,2.30
2019-02-26T22:28:02.949Z,1.80
2019-02-26T22:30:43.544Z,1.57
2019-02-26T22:33:24.761Z,1.43
2019-02-26T22:36:05.356Z,1.50
2019-02-26T22:38:46.227Z,1.83
2019-02-26T22:41:28.427Z,1.00
2019-02-26T22:44:09.773Z,1.50
2019-02-26T22:46:51.147Z,1.20
2019-02-26T22:49:32.616Z,1.60
2019-02-26T22:52:13.371Z,1.73
2019-02-26T22:54:54.899Z,1.80
2019-02-26T22:57:35.596Z,1.57
2019-02-26T23:00:18.532Z,2.00
2019-02-26T23:02:59.444Z,2.40
2019-02-26T23:05:40.852Z,1.92
2019-02-26T23:08:22.177Z,2.13
2019-02-26T23:11:03.066Z,2.20
2019-02-26T23:13:43.720Z,2.00
2019-02-26T23:16:25.009Z,1.75
2019-02-26T23:19:06.520Z,1.95
2019-02-26T23:21:49.751Z,1.40
2019-02-26T23:24:29.972Z,1.80
2019-02-26T23:27:14.947Z,1.80
2019-02-26T23:29:54.097Z,1.53
2019-02-26T23:32:36.609Z,1.50
2019-02-26T23:35:17.819Z,1.98
2019-02-26T23:37:58.552Z,1.53
2019-02-26T23:40:40.080Z,1.60
2019-02-26T23:43:21.421Z,1.50
2019-02-26T23:46:02.800Z,1.85
2019-02-26T23:48:43.511Z,1.95
2019-02-26T23:51:24.671Z,1.45
2019-02-26T23:54:07.268Z,1.30
2019-02-26T23:56:49.795Z,1.50
2019-02-26T23:59:30.755Z,1.25
